Arlesey, United Kingdom
Current Conditions -  °F | °C
As of 11:50 AM on Thursday 30 Oct 2014 (Local Time) from EGGW Reporting Station
Broken Clouds Broken Clouds  
Wind Chill: 61°   Ceiling: 800
Heat Index: 61°   Visibility: 4mi
Dew Point: 61°   Wind: 9mph
Humidity: 100%   Direction: 210°SSW
Pressure: 30.06"   Gusts: NA
Location:  52.01°N, 0.27°W
Report Text: EGGW 301150Z 21008KT 6000 BKN008 16/16 Q1018
Loading
Personal Weather Stations






























Interactive Weather Map
Tropical Storm Tracking
New forecast layout! Learn more

10-Day Weather Forecast

Advertisements
Track Severe Weather on mobile